Time;durP1;ratioP1;P1;durP2;ratioP2;P2;SDS_P1;SDS_P2;PMS_P1;PMS_P2;Temp;Humidity;BMP_temperature;BMP_pressure;BME280_temperature;BME280_humidity;BME280_pressure;Samples;Min_cycle;Max_cycle;Signal;HPM_P1;HPM_P2
2022/12/14 00:01:14;;;;;;;95.40;50.40;;;;;;;-9.19;100.00;98664.87;105947;1290;59657;-80
2022/12/14 00:03:42;;;;;;;94.60;49.20;;;;;;;-9.29;100.00;98665.31;105921;1284;75542;-80
2022/12/14 00:06:14;;;;;;;98.40;51.30;;;;;;;-9.38;100.00;98671.10;105904;1283;66395;-79
2022/12/14 00:08:41;;;;;;;90.90;48.40;;;;;;;-9.49;100.00;98671.36;105908;1290;73819;-79
2022/12/14 00:11:08;;;;;;;92.60;50.90;;;;;;;-9.63;100.00;98667.30;105940;1290;59711;-80
2022/12/14 00:13:35;;;;;;;97.30;51.30;;;;;;;-9.68;100.00;98665.55;105939;1289;60183;-80
2022/12/14 00:16:10;;;;;;;100.20;52.20;;;;;;;-9.71;100.00;98664.13;105930;1289;75683;-80
2022/12/14 00:18:38;;;;;;;105.30;56.10;;;;;;;-9.75;100.00;98667.54;105932;1290;69003;-79
2022/12/14 00:21:06;;;;;;;104.00;56.00;;;;;;;-9.75;100.00;98668.40;105776;1291;72929;-80
2022/12/14 00:23:33;;;;;;;102.70;55.50;;;;;;;-9.71;100.00;98665.69;105938;1290;59596;-80
2022/12/14 00:26:15;;;;;;;106.40;57.60;;;;;;;-9.66;100.00;98665.38;105940;1292;59829;-79
2022/12/14 00:28:42;;;;;;;112.90;59.00;;;;;;;-9.72;100.00;98670.31;105945;1291;75195;-79
2022/12/14 00:31:10;;;;;;;102.50;53.20;;;;;;;-9.75;100.00;98668.76;105730;1291;68518;-79
2022/12/14 00:33:36;;;;;;;95.40;56.40;;;;;;;-9.85;100.00;98667.27;105905;1290;72928;-78
2022/12/14 00:36:04;;;;;;;107.60;56.10;;;;;;;-9.96;100.00;98662.37;105934;1290;59722;-79
2022/12/14 00:38:31;;;;;;;109.60;55.80;;;;;;;-10.04;100.00;98659.89;105803;1292;59613;-79
2022/12/14 00:40:57;;;;;;;116.00;58.70;;;;;;;-10.09;100.00;98664.13;105776;1292;59779;-79
2022/12/14 00:43:23;;;;;;;113.50;57.40;;;;;;;-10.12;100.00;98662.73;105912;1289;59679;-79
2022/12/14 00:45:51;;;;;;;107.50;58.30;;;;;;;-10.10;100.00;98661.54;105922;1291;59848;-79
2022/12/14 00:48:22;;;;;;;110.30;58.10;;;;;;;-10.12;100.00;98658.78;105895;1290;59849;-79
2022/12/14 00:50:49;;;;;;;106.10;60.70;;;;;;;-10.18;100.00;98661.13;105935;1290;60864;-79
2022/12/14 00:53:16;;;;;;;121.70;58.60;;;;;;;-10.26;100.00;98661.55;105919;1291;74600;-79
2022/12/14 00:55:44;;;;;;;110.60;59.10;;;;;;;-10.32;100.00;98659.82;105942;1291;59785;-80
2022/12/14 00:58:12;;;;;;;105.80;55.50;;;;;;;-10.36;100.00;98660.45;105198;1297;1002355;-80
2022/12/14 01:00:39;;;;;;;120.30;58.30;;;;;;;-10.43;100.00;98658.81;105981;1291;59678;-79
2022/12/14 01:03:06;;;;;;;112.40;60.40;;;;;;;-10.48;100.00;98663.41;105944;1290;59690;-80
2022/12/14 01:05:37;;;;;;;114.70;62.60;;;;;;;-10.46;100.00;98661.55;106066;1283;74720;-80
2022/12/14 01:08:04;;;;;;;107.10;58.10;;;;;;;-10.46;100.00;98653.98;106110;1290;67908;-79
2022/12/14 01:10:30;;;;;;;110.50;61.10;;;;;;;-10.48;100.00;98650.20;105965;1290;72665;-79
2022/12/14 01:12:58;;;;;;;118.90;63.80;;;;;;;-10.49;100.00;98644.52;105990;1290;59825;-79
2022/12/14 01:15:24;;;;;;;113.70;59.60;;;;;;;-10.42;100.00;98644.26;106093;1285;59077;-79
2022/12/14 01:17:51;;;;;;;113.60;60.40;;;;;;;-10.35;100.00;98639.52;105922;1289;59792;-80
2022/12/14 01:20:17;;;;;;;109.10;57.10;;;;;;;-10.34;100.00;98637.13;105929;1290;59705;-80
2022/12/14 01:22:43;;;;;;;111.80;58.40;;;;;;;-10.35;100.00;98634.53;105787;1291;59723;-80
2022/12/14 01:25:09;;;;;;;107.30;59.60;;;;;;;-10.34;100.00;98633.17;105893;1285;59957;-78
2022/12/14 01:27:37;;;;;;;100.70;55.60;;;;;;;-10.34;100.00;98631.46;105944;1290;59528;-80
2022/12/14 01:30:03;;;;;;;101.90;53.80;;;;;;;-10.36;100.00;98621.30;105752;1293;59768;-80
2022/12/14 01:32:32;;;;;;;104.60;53.10;;;;;;;-10.41;100.00;98618.52;105780;1291;67461;-80
2022/12/14 01:34:58;;;;;;;87.40;43.10;;;;;;;-10.41;100.00;98616.10;105948;1291;73161;-79
2022/12/14 01:37:24;;;;;;;97.80;52.50;;;;;;;-10.40;100.00;98618.86;105921;1290;59648;-79
2022/12/14 01:39:50;;;;;;;97.50;53.90;;;;;;;-10.44;100.00;98618.12;105919;1282;59635;-78
2022/12/14 01:42:16;;;;;;;107.60;54.40;;;;;;;-10.49;100.00;98612.77;105182;1287;1002877;-78
2022/12/14 01:44:42;;;;;;;102.90;58.20;;;;;;;-10.52;100.00;98614.60;105665;1292;60154;-80
2022/12/14 01:47:14;;;;;;;105.50;54.40;;;;;;;-10.58;100.00;98615.23;105183;1282;1002066;-80
2022/12/14 01:49:44;;;;;;;99.60;54.70;;;;;;;-10.68;100.00;98613.41;105904;1290;60000;-78
2022/12/14 01:52:22;;;;;;;106.20;58.00;;;;;;;-10.75;100.00;98618.30;105787;1284;61163;-79
2022/12/14 01:54:59;;;;;;;94.40;52.10;;;;;;;-10.84;100.00;98619.58;105935;1290;75627;-79
2022/12/14 01:57:31;;;;;;;101.10;50.90;;;;;;;-10.90;100.00;98616.41;105945;1284;67603;-79
2022/12/14 01:59:58;;;;;;;95.70;52.40;;;;;;;-10.93;100.00;98611.73;105905;1281;73807;-80
2022/12/14 02:02:27;;;;;;;88.00;48.80;;;;;;;-10.96;100.00;98614.97;105908;1290;60496;-79
2022/12/14 02:04:57;;;;;;;88.70;46.10;;;;;;;-11.02;100.00;98616.93;105938;1290;61313;-80
2022/12/14 02:07:26;;;;;;;89.70;48.10;;;;;;;-11.08;100.00;98608.98;105895;1290;74396;-79
2022/12/14 02:09:55;;;;;;;90.10;47.00;;;;;;;-11.13;100.00;98609.26;105636;1290;68750;-78
2022/12/14 02:12:30;;;;;;;88.30;46.50;;;;;;;-11.18;100.00;98611.25;105921;1283;72701;-79
2022/12/14 02:14:57;;;;;;;100.10;48.80;;;;;;;-11.24;100.00;98607.91;105919;1290;59729;-80
2022/12/14 02:17:23;;;;;;;92.40;47.80;;;;;;;-11.33;100.00;98605.91;105201;1291;1002283;-80
2022/12/14 02:19:50;;;;;;;89.30;48.60;;;;;;;-11.41;100.00;98605.96;105955;1290;59761;-80
2022/12/14 02:22:42;;;;;;;93.70;49.60;;;;;;;-11.47;100.00;98606.39;105917;1287;59724;-79
2022/12/14 02:25:34;;;;;;;90.40;47.70;;;;;;;-11.54;100.00;98611.09;105708;1293;63923;-80
2022/12/14 02:28:24;;;;;;;93.00;50.80;;;;;;;-11.62;100.00;98604.48;105924;1290;59729;-80
2022/12/14 02:31:03;;;;;;;81.30;47.00;;;;;;;-11.70;100.00;98602.82;105916;1290;59526;-80
2022/12/14 02:33:49;;;;;;;95.50;53.40;;;;;;;-11.77;100.00;98609.37;105193;1290;1002422;-80
2022/12/14 02:36:33;;;;;;;95.60;49.80;;;;;;;-11.85;100.00;98608.58;105929;1290;60201;-80
2022/12/14 02:39:02;;;;;;;97.30;50.70;;;;;;;-11.96;100.00;98605.01;105868;1283;71788;-80
2022/12/14 02:41:41;;;;;;;102.60;52.20;;;;;;;-11.97;100.00;98606.02;105939;1291;59910;-80
2022/12/14 02:44:38;;;;;;;93.20;48.80;;;;;;;-11.98;100.00;98604.81;105939;1283;61902;-80
2022/12/14 02:47:14;;;;;;;96.60;50.00;;;;;;;-12.03;100.00;98604.55;105218;1283;1002314;-80
2022/12/14 02:49:43;;;;;;;85.80;48.50;;;;;;;-12.06;100.00;98601.93;105204;1290;1002928;-80
2022/12/14 02:52:32;;;;;;;101.70;53.20;;;;;;;-12.09;100.00;98596.90;105933;1284;72168;-80
2022/12/14 02:55:11;;;;;;;92.40;48.50;;;;;;;-12.10;100.00;98593.98;105953;1274;59818;-79
2022/12/14 02:57:45;;;;;;;88.00;46.20;;;;;;;-12.08;100.00;98590.78;105916;1283;59606;-81
2022/12/14 03:00:36;;;;;;;90.80;47.90;;;;;;;-12.08;100.00;98589.91;105660;1292;75586;-80
2022/12/14 03:03:04;;;;;;;92.50;47.90;;;;;;;-12.10;100.00;98582.52;105918;1289;69535;-80
2022/12/14 03:05:31;;;;;;;86.50;46.70;;;;;;;-12.07;100.00;98584.45;105904;1290;73797;-80
2022/12/14 03:08:04;;;;;;;93.70;48.80;;;;;;;-12.01;100.00;98584.02;105789;1285;60023;-79
2022/12/14 03:10:38;;;;;;;87.40;50.70;;;;;;;-11.95;100.00;98585.33;105692;1291;59768;-78
2022/12/14 03:13:15;;;;;;;81.40;44.00;;;;;;;-11.88;100.00;98585.94;105717;1293;76532;-79
2022/12/14 03:15:46;;;;;;;85.20;46.30;;;;;;;-11.83;100.00;98587.88;105904;1290;68809;-79
2022/12/14 03:18:16;;;;;;;76.70;42.00;;;;;;;-11.77;100.00;98586.95;105748;1293;72871;-79
2022/12/14 03:20:46;;;;;;;87.00;46.60;;;;;;;-11.69;100.00;98584.83;105750;1292;59647;-79
2022/12/14 03:23:17;;;;;;;77.40;44.00;;;;;;;-11.58;100.00;98574.54;105030;1292;1002227;-80
2022/12/14 03:25:50;;;;;;;80.70;42.10;;;;;;;-11.45;100.00;98570.42;105781;1284;75270;-80
2022/12/14 03:28:23;;;;;;;77.40;43.30;;;;;;;-11.36;100.00;98569.68;105874;1291;69584;-79
2022/12/14 03:31:02;;;;;;;79.80;40.90;;;;;;;-11.29;100.00;98566.52;105935;1290;71088;-79
2022/12/14 03:33:30;;;;;;;79.90;45.30;;;;;;;-11.20;100.00;98562.70;105948;1283;59741;-79
2022/12/14 03:36:05;;;;;;;84.00;45.50;;;;;;;-11.14;100.00;98561.75;105918;1290;59934;-78
2022/12/14 03:38:51;;;;;;;84.40;44.20;;;;;;;-11.07;100.00;98558.23;105583;1296;75679;-79
2022/12/14 03:41:42;;;;;;;72.20;41.80;;;;;;;-11.01;100.00;98558.29;105198;1284;1002469;-79
2022/12/14 03:44:29;;;;;;;87.40;47.50;;;;;;;-10.98;100.00;98552.33;105949;1290;63969;-79
2022/12/14 03:46:59;;;;;;;71.60;40.00;;;;;;;-10.94;100.00;98551.84;105924;1283;59806;-79
2022/12/14 03:49:49;;;;;;;87.70;48.90;;;;;;;-10.92;100.00;98554.10;105692;1293;59780;-79
2022/12/14 03:52:24;;;;;;;80.40;45.50;;;;;;;-10.91;100.00;98557.23;105918;1291;74517;-80
2022/12/14 03:55:02;;;;;;;85.90;48.60;;;;;;;-10.89;100.00;98557.58;105176;1291;1002800;-79
2022/12/14 03:57:41;;;;;;;84.20;47.30;;;;;;;-10.87;100.00;98559.48;105942;1290;72668;-80
2022/12/14 04:00:11;;;;;;;85.70;46.50;;;;;;;-10.86;100.00;98557.10;105940;1283;59623;-80
2022/12/14 04:02:51;;;;;;;84.00;47.40;;;;;;;-10.83;100.00;98555.75;105786;1293;61331;-79
2022/12/14 04:05:25;;;;;;;87.20;49.70;;;;;;;-10.80;100.00;98557.66;105217;1287;1002709;-79
2022/12/14 04:08:12;;;;;;;79.80;47.30;;;;;;;-10.78;100.00;98559.58;105919;1291;69674;-79
2022/12/14 04:19:45;;;;;;;;;;;;;;;-10.70;100.00;98541.48;105447;1297;68111;-78
2022/12/14 04:22:24;;;;;;;85.60;46.00;;;;;;;-10.68;100.00;98543.04;105501;1289;68965;-79
2022/12/14 04:27:54;;;;;;;91.10;47.30;;;;;;;-10.64;100.00;98533.11;105326;1299;59766;-79
2022/12/14 04:30:21;;;;;;;96.50;52.30;;;;;;;-10.62;100.00;98534.86;105460;1297;61302;-81
2022/12/14 04:35:57;;;;;;;96.90;54.40;;;;;;;-10.59;100.00;98532.83;105418;1296;68546;-81
2022/12/14 04:38:34;;;;;;;96.00;54.50;;;;;;;-10.58;100.00;98530.09;105308;1300;71438;-79
2022/12/14 04:41:07;;;;;;;96.90;54.70;;;;;;;-10.57;100.00;98525.46;105440;1297;59617;-79
2022/12/14 04:43:40;;;;;;;98.00;53.50;;;;;;;-10.56;100.00;98518.61;105431;1289;59582;-79
2022/12/14 04:46:35;;;;;;;108.00;53.80;;;;;;;-10.55;100.00;98516.39;105444;1295;76418;-79
2022/12/14 04:49:09;;;;;;;92.60;53.40;;;;;;;-10.53;100.00;98513.48;104886;1303;69208;-79
2022/12/14 04:52:03;;;;;;;93.00;51.40;;;;;;;-10.51;100.00;98512.30;105107;1303;73853;-79
2022/12/14 04:54:32;;;;;;;91.30;51.20;;;;;;;-10.52;100.00;98509.56;105450;1296;59787;-80
2022/12/14 04:57:16;;;;;;;98.40;53.20;;;;;;;-10.49;100.00;98508.04;105515;1297;59780;-79
2022/12/14 04:59:43;;;;;;;85.40;48.90;;;;;;;-10.47;100.00;98503.94;105506;1295;75478;-80
2022/12/14 05:02:37;;;;;;;87.00;47.50;;;;;;;-10.45;100.00;98500.52;104724;1296;1002535;-80
2022/12/14 05:05:31;;;;;;;89.50;46.80;;;;;;;-10.42;100.00;98489.72;105514;1296;72920;-79
2022/12/14 05:08:09;;;;;;;88.70;48.70;;;;;;;-10.40;100.00;98486.83;104789;1303;1002319;-79
2022/12/14 05:10:52;;;;;;;84.30;48.30;;;;;;;-10.38;100.00;98486.83;104784;1296;1002697;-80
2022/12/14 05:13:28;;;;;;;94.90;54.40;;;;;;;-10.37;100.00;98480.66;105527;1301;74849;-80
2022/12/14 05:15:58;;;;;;;87.60;49.40;;;;;;;-10.35;100.00;98476.89;105542;1288;67662;-80
2022/12/14 05:18:24;;;;;;;88.90;47.90;;;;;;;-10.36;100.00;98471.73;105448;1290;71694;-79
2022/12/14 05:20:50;;;;;;;91.50;49.60;;;;;;;-10.36;100.00;98470.19;105525;1297;60543;-80
2022/12/14 05:23:17;;;;;;;80.80;49.00;;;;;;;-10.37;100.00;98466.08;104713;1297;1002326;-79
2022/12/14 05:25:44;;;;;;;81.30;45.70;;;;;;;-10.36;100.00;98461.27;105636;1290;59704;-80
2022/12/14 05:28:10;;;;;;;89.20;50.60;;;;;;;-10.35;100.00;98459.20;105903;1290;59683;-80
2022/12/14 05:30:38;;;;;;;94.60;53.30;;;;;;;-10.34;100.00;98457.34;105185;1290;1002397;-79
2022/12/14 05:33:04;;;;;;;96.50;50.50;;;;;;;-10.33;100.00;98459.05;105919;1290;59808;-79
2022/12/14 05:35:30;;;;;;;82.70;50.10;;;;;;;-10.31;100.00;98462.00;105035;1284;1002226;-79
2022/12/14 05:37:56;;;;;;;84.30;49.50;;;;;;;-10.29;100.00;98460.45;105887;1284;59981;-79
2022/12/14 05:40:22;;;;;;;74.90;42.50;;;;;;;-10.29;100.00;98456.69;105949;1290;59644;-79
2022/12/14 05:42:48;;;;;;;86.70;48.10;;;;;;;-10.28;100.00;98456.69;105933;1291;59676;-78
2022/12/14 05:45:14;;;;;;;85.60;49.30;;;;;;;-10.27;100.00;98454.42;105963;1290;59755;-80
2022/12/14 05:47:40;;;;;;;81.30;49.90;;;;;;;-10.25;100.00;98459.08;104493;1283;1002510;-80
2022/12/14 05:50:07;;;;;;;82.60;50.20;;;;;;;-10.22;100.00;98463.05;105981;1290;59699;-80
2022/12/14 05:52:34;;;;;;;81.20;46.20;;;;;;;-10.23;100.00;98464.77;105760;1291;73619;-79
2022/12/14 05:55:00;;;;;;;75.70;43.70;;;;;;;-10.22;100.00;98467.00;105738;1292;60571;-79
2022/12/14 05:57:26;;;;;;;78.00;44.90;;;;;;;-10.20;100.00;98462.56;105939;1290;59572;-80
2022/12/14 05:59:51;;;;;;;78.20;44.00;;;;;;;-10.18;100.00;98468.40;105946;1288;59855;-79
2022/12/14 06:02:17;;;;;;;72.40;43.10;;;;;;;-10.16;100.00;98466.70;105949;1291;59789;-80
2022/12/14 06:04:44;;;;;;;85.00;45.90;;;;;;;-10.13;100.00;98467.58;105935;1284;59840;-81
2022/12/14 06:07:10;;;;;;;80.30;42.80;;;;;;;-10.11;100.00;98466.39;105927;1290;59731;-80
2022/12/14 06:09:36;;;;;;;78.70;45.10;;;;;;;-10.08;100.00;98469.48;105958;1284;59604;-80
2022/12/14 06:12:02;;;;;;;94.00;48.40;;;;;;;-10.08;100.00;98462.10;105985;1290;59762;-80
2022/12/14 06:14:30;;;;;;;80.30;44.30;;;;;;;-10.06;100.00;98462.63;105212;1289;1002503;-79
2022/12/14 06:16:56;;;;;;;79.80;45.90;;;;;;;-10.05;100.00;98465.39;105925;1277;59919;-80
2022/12/14 06:19:21;;;;;;;81.30;45.70;;;;;;;-10.03;100.00;98469.02;105929;1291;59650;-80
2022/12/14 06:21:47;;;;;;;78.50;45.50;;;;;;;-10.00;100.00;98469.21;105994;1290;59683;-81
2022/12/14 06:24:13;;;;;;;83.10;46.60;;;;;;;-9.99;100.00;98466.98;105937;1283;67961;-79
2022/12/14 06:26:39;;;;;;;86.40;44.10;;;;;;;-9.98;100.00;98461.50;105183;1283;1002210;-80
2022/12/14 06:29:07;;;;;;;75.80;42.60;;;;;;;-9.95;100.00;98457.91;105759;1290;59723;-80
2022/12/14 06:31:33;;;;;;;73.50;42.90;;;;;;;-9.92;100.00;98462.56;105029;1288;1002371;-79
2022/12/14 06:34:01;;;;;;;76.00;42.00;;;;;;;-9.90;100.00;98452.77;105953;1284;59992;-80
2022/12/14 06:36:33;;;;;;;81.80;44.20;;;;;;;-9.87;100.00;98450.73;105706;1291;67702;-80
2022/12/14 06:39:02;;;;;;;82.20;42.70;;;;;;;-9.83;100.00;98447.48;105905;1290;72897;-81
2022/12/14 06:41:28;;;;;;;75.60;42.20;;;;;;;-9.79;100.00;98437.20;105944;1283;59858;-80
2022/12/14 06:43:55;;;;;;;72.60;41.40;;;;;;;-9.76;100.00;98437.21;105938;1290;59787;-80
2022/12/14 06:46:23;;;;;;;77.00;44.50;;;;;;;-9.73;100.00;98432.07;105915;1290;60236;-80
2022/12/14 06:48:50;;;;;;;78.30;42.60;;;;;;;-9.70;100.00;98430.02;105180;1290;1002658;-80
2022/12/14 06:51:17;;;;;;;80.10;45.60;;;;;;;-9.68;100.00;98433.11;105175;1283;1002468;-81
2022/12/14 06:53:43;;;;;;;79.50;42.80;;;;;;;-9.64;100.00;98430.05;105942;1284;59852;-78
2022/12/14 06:56:14;;;;;;;74.70;42.30;;;;;;;-9.62;100.00;98424.73;105952;1287;59878;-79
2022/12/14 06:58:41;;;;;;;68.30;35.70;;;;;;;-9.61;100.00;98420.27;105931;1283;74414;-76
2022/12/14 07:01:10;;;;;;;78.30;42.30;;;;;;;-9.58;100.00;98425.61;105941;1283;69021;-79
2022/12/14 07:03:36;;;;;;;81.50;43.30;;;;;;;-9.57;100.00;98420.95;105756;1292;72882;-78
2022/12/14 07:06:03;;;;;;;80.50;45.00;;;;;;;-9.51;100.00;98419.27;105197;1284;1002057;-78
2022/12/14 07:08:30;;;;;;;80.50;44.60;;;;;;;-9.45;100.00;98414.46;105925;1290;59731;-82
2022/12/14 07:11:00;;;;;;;77.40;43.80;;;;;;;-9.35;100.00;98407.80;105150;1290;1002512;-83
2022/12/14 07:13:26;;;;;;;76.70;45.30;;;;;;;-9.26;100.00;98407.30;104925;1295;1003256;-81
2022/12/14 07:15:55;;;;;;;73.30;40.60;;;;;;;-9.19;100.00;98405.08;105927;1291;59616;-79
2022/12/14 07:18:21;;;;;;;72.30;42.80;;;;;;;-9.12;100.00;98402.85;105509;1298;60204;-76
2022/12/14 07:21:02;;;;;;;67.90;42.10;;;;;;;-9.06;100.00;98394.27;105777;1286;59672;-84
2022/12/14 07:23:31;;;;;;;76.20;44.60;;;;;;;-8.97;100.00;98394.11;105702;1293;75291;-90
2022/12/14 07:26:14;;;;;;;77.90;39.80;;;;;;;-8.90;100.00;98394.11;105671;1274;67378;-88
2022/12/14 07:28:42;;;;;;;78.40;47.00;;;;;;;-8.81;100.00;98398.93;105565;1295;71276;-80
2022/12/14 07:31:23;;;;;;;84.00;46.60;;;;;;;-8.73;100.00;98399.64;105759;1287;59591;-83
2022/12/14 07:33:52;;;;;;;85.20;46.90;;;;;;;-8.60;100.00;98395.16;105839;1290;60501;-81
2022/12/14 07:36:20;;;;;;;78.80;45.80;;;;;;;-8.52;100.00;98394.29;105855;1295;75927;-79
2022/12/14 07:38:47;;;;;;;83.80;45.10;;;;;;;-8.45;100.00;98391.52;105770;1293;67824;-79
2022/12/14 07:41:15;;;;;;;82.80;48.10;;;;;;;-8.41;100.00;98386.88;105780;1290;71768;-78
2022/12/14 07:43:42;;;;;;;83.40;48.20;;;;;;;-8.34;100.00;98387.70;105776;1290;59982;-78
2022/12/14 07:46:11;;;;;;;84.10;47.90;;;;;;;-8.29;100.00;98386.14;105683;1294;59774;-78
2022/12/14 07:48:40;;;;;;;78.50;44.10;;;;;;;-8.26;100.00;98385.10;105777;1295;74235;-77
2022/12/14 07:51:08;;;;;;;81.90;45.90;;;;;;;-8.29;100.00;98379.75;105763;1295;68311;-82
2022/12/14 07:53:36;;;;;;;74.00;44.00;;;;;;;-8.30;100.00;98379.59;105073;1293;1003051;-80
2022/12/14 07:56:05;;;;;;;78.00;46.10;;;;;;;-8.26;100.00;98383.20;105649;1294;60615;-80
2022/12/14 07:58:33;;;;;;;80.80;44.70;;;;;;;-8.21;100.00;98382.50;105447;1291;60206;-81
2022/12/14 08:01:14;;;;;;;76.90;43.70;;;;;;;-8.15;100.00;98379.05;104893;1291;1002288;-82
2022/12/14 08:03:44;;;;;;;77.90;44.20;;;;;;;-8.09;100.00;98381.27;105773;1287;67536;-76
2022/12/14 08:06:12;;;;;;;73.50;44.90;;;;;;;-8.05;100.00;98380.73;105006;1283;1002622;-76
2022/12/14 08:08:39;;;;;;;78.60;45.40;;;;;;;-7.99;100.00;98377.11;105669;1295;60141;-76
2022/12/14 08:11:07;;;;;;;81.70;44.40;;;;;;;-7.93;100.00;98373.12;105043;1295;1002953;-76
2022/12/14 08:13:33;;;;;;;86.60;47.30;;;;;;;-7.84;100.00;98363.45;105038;1294;1002398;-76
2022/12/14 08:16:05;;;;;;;79.30;44.60;;;;;;;-7.75;100.00;98364.27;105046;1294;1002186;-76
2022/12/14 08:18:32;;;;;;;79.20;42.70;;;;;;;-7.70;100.00;98354.75;105723;1287;71546;-76
2022/12/14 08:21:00;;;;;;;77.70;45.20;;;;;;;-7.73;100.00;98347.70;105743;1295;59693;-76
2022/12/14 08:23:26;;;;;;;82.50;45.50;;;;;;;-7.69;100.00;98348.38;105773;1295;59702;-75
2022/12/14 08:25:53;;;;;;;77.00;43.40;;;;;;;-7.67;100.00;98353.54;105044;1285;1002826;-75
2022/12/14 08:28:21;;;;;;;70.60;42.00;;;;;;;-7.62;100.00;98353.17;105738;1294;67853;-76
2022/12/14 08:30:47;;;;;;;79.40;46.90;;;;;;;-7.58;100.00;98356.08;105736;1288;72600;-75
2022/12/14 08:33:13;;;;;;;81.90;44.90;;;;;;;-7.53;100.00;98361.05;105753;1295;59706;-76
2022/12/14 08:35:39;;;;;;;85.00;47.70;;;;;;;-7.50;100.00;98359.15;105745;1295;59692;-76
2022/12/14 08:38:05;;;;;;;82.40;47.20;;;;;;;-7.50;100.00;98362.42;105011;1291;1002883;-76
2022/12/14 08:40:34;;;;;;;76.30;44.10;;;;;;;-7.46;100.00;98362.23;105014;1287;1002576;-77
2022/12/14 08:43:00;;;;;;;76.70;45.10;;;;;;;-7.40;100.00;98358.91;105637;1294;72476;-77
2022/12/14 08:45:26;;;;;;;78.40;46.40;;;;;;;-7.32;100.00;98360.42;105777;1291;59825;-77
2022/12/14 08:47:52;;;;;;;76.40;41.20;;;;;;;-7.27;100.00;98361.43;105731;1294;59695;-77
2022/12/14 08:50:19;;;;;;;70.30;41.70;;;;;;;-7.29;100.00;98361.27;105750;1291;59828;-77
2022/12/14 08:52:47;;;;;;;73.90;43.60;;;;;;;-7.25;100.00;98358.33;105765;1294;59838;-76
2022/12/14 08:55:13;;;;;;;78.30;45.20;;;;;;;-7.20;100.00;98355.02;105771;1285;72887;-77
2022/12/14 08:57:39;;;;;;;77.30;45.80;;;;;;;-7.13;100.00;98352.55;105730;1286;59762;-77
2022/12/14 09:00:08;;;;;;;73.40;44.20;;;;;;;-7.07;100.00;98359.06;105581;1296;59931;-76
2022/12/14 09:02:34;;;;;;;72.10;44.20;;;;;;;-6.98;100.00;98360.71;105017;1295;1002808;-76
2022/12/14 09:05:02;;;;;;;72.00;41.10;;;;;;;-6.83;100.00;98359.41;105003;1291;1002001;-77
2022/12/14 09:07:29;;;;;;;78.40;46.60;;;;;;;-6.72;100.00;98361.23;105759;1298;71313;-76
2022/12/14 09:09:55;;;;;;;74.70;44.30;;;;;;;-6.56;100.00;98348.81;105525;1294;59624;-77
2022/12/14 09:12:22;;;;;;;75.80;46.60;;;;;;;-6.43;100.00;98337.12;105018;1294;1002176;-77
2022/12/14 09:14:48;;;;;;;72.20;43.10;;;;;;;-6.36;100.00;98331.52;105557;1296;59678;-76
2022/12/14 09:17:15;;;;;;;74.00;44.90;;;;;;;-6.36;100.00;98325.99;105754;1293;59710;-77
2022/12/14 09:19:42;;;;;;;76.90;45.00;;;;;;;-6.39;100.00;98325.50;105723;1293;59737;-75
2022/12/14 09:22:09;;;;;;;74.80;43.90;;;;;;;-6.46;100.00;98327.64;105606;1294;60668;-76
2022/12/14 09:24:35;;;;;;;78.20;46.90;;;;;;;-6.41;100.00;98328.46;105707;1284;59601;-76
2022/12/14 09:27:02;;;;;;;74.00;48.90;;;;;;;-6.31;100.00;98324.73;105734;1295;60229;-76
2022/12/14 09:29:28;;;;;;;78.30;47.00;;;;;;;-6.17;100.00;98328.73;105786;1295;59759;-77
2022/12/14 09:31:55;;;;;;;84.70;51.50;;;;;;;-6.06;100.00;98331.55;105748;1295;59769;-77
2022/12/14 09:34:22;;;;;;;82.00;47.90;;;;;;;-5.91;100.00;98333.09;105740;1294;59710;-77
2022/12/14 09:36:49;;;;;;;76.20;45.10;;;;;;;-5.74;100.00;98331.83;105717;1285;59821;-76
2022/12/14 09:39:15;;;;;;;77.20;45.00;;;;;;;-5.62;100.00;98328.05;105759;1295;59795;-77
2022/12/14 09:41:49;;;;;;;81.90;46.40;;;;;;;-5.47;100.00;98316.77;105631;1287;59823;-76
2022/12/14 09:44:30;;;;;;;77.40;45.80;;;;;;;-5.37;100.00;98310.73;105763;1295;73126;-77
2022/12/14 09:47:17;;;;;;;79.70;49.70;;;;;;;-5.31;100.00;98314.66;105749;1291;59681;-76
2022/12/14 09:49:54;;;;;;;74.70;48.50;;;;;;;-5.26;100.00;98316.48;105760;1285;60740;-76
2022/12/14 09:52:54;;;;;;;76.10;45.20;;;;;;;-5.22;100.00;98317.45;105768;1290;76606;-76
2022/12/14 09:55:55;;;;;;;81.00;50.70;;;;;;;-5.16;100.00;98315.48;105155;1297;60143;-75
2022/12/14 09:58:21;;;;;;;79.50;48.90;;;;;;;-5.07;100.00;98311.52;104770;1314;64917;-77
2022/12/14 10:01:02;;;;;;;80.10;47.60;;;;;;;-4.94;100.00;98309.77;104624;1299;59858;-75
2022/12/14 10:03:51;;;;;;;82.00;46.90;;;;;;;-4.92;100.00;98311.63;104799;1299;60492;-77
2022/12/14 10:06:17;;;;;;;83.90;47.90;;;;;;;-4.89;100.00;98313.14;104540;1300;65393;-76
2022/12/14 10:09:06;;;;;;;84.60;49.80;;;;;;;-4.77;100.00;98310.69;104794;1305;59779;-76
2022/12/14 10:11:57;;;;;;;79.80;47.80;;;;;;;-4.69;100.00;98315.59;104420;1307;65001;-76
2022/12/14 10:15:08;;;;;;;73.80;43.50;;;;;;;-4.68;100.00;98315.04;104755;1305;59758;-77
2022/12/14 10:18:00;;;;;;;68.10;43.00;;;;;;;-4.72;100.00;98303.49;104261;1310;60206;-77
2022/12/14 10:20:47;;;;;;;64.80;41.30;;;;;;;-4.76;100.00;98296.48;104306;1310;75315;-77
2022/12/14 10:23:19;;;;;;;66.10;42.30;;;;;;;-4.69;100.00;98293.06;104327;1306;69557;-77
2022/12/14 10:25:50;;;;;;;64.20;40.00;;;;;;;-4.76;100.00;98291.63;104303;1309;73103;-77
2022/12/14 10:28:37;;;;;;;62.30;37.30;;;;;;;-4.75;100.00;98289.36;104254;1310;60091;-77
2022/12/14 10:31:09;;;;;;;66.80;39.20;;;;;;;-4.74;100.00;98277.04;104278;1309;59730;-77
2022/12/14 10:33:40;;;;;;;60.50;37.80;;;;;;;-4.81;100.00;98272.11;103997;1304;1014823;-77
2022/12/14 10:36:37;;;;;;;60.10;38.00;;;;;;;-4.89;100.00;98281.95;105124;1300;67546;-77
2022/12/14 10:39:20;;;;;;;62.00;38.00;;;;;;;-4.90;100.00;98270.90;105107;1299;64831;-76
2022/12/14 10:41:55;;;;;;;60.50;39.10;;;;;;;-4.84;100.00;98260.22;105102;1300;60233;-76
2022/12/14 10:44:38;;;;;;;60.50;37.30;;;;;;;-4.91;100.00;98259.64;105140;1300;60504;-77
2022/12/14 10:47:24;;;;;;;65.70;39.90;;;;;;;-4.95;100.00;98264.39;104941;1299;247682;-77
2022/12/14 10:49:54;;;;;;;56.90;36.10;;;;;;;-4.90;100.00;98250.78;105102;1300;61152;-76
2022/12/14 10:52:24;;;;;;;56.70;36.00;;;;;;;-4.82;100.00;98245.47;105112;1300;72132;-76
2022/12/14 10:55:12;;;;;;;68.80;44.60;;;;;;;-4.76;100.00;98253.32;105444;1301;60077;-76
2022/12/14 10:57:38;;;;;;;62.80;38.90;;;;;;;-4.62;100.00;98250.65;105022;1295;1002190;-76
2022/12/14 11:00:11;;;;;;;63.60;40.60;;;;;;;-4.59;100.00;98245.40;105733;1285;59707;-77
2022/12/14 11:02:41;;;;;;;66.70;40.20;;;;;;;-4.59;100.00;98243.64;105770;1298;67352;-77
2022/12/14 11:05:37;;;;;;;59.90;39.70;;;;;;;-4.56;100.00;98234.08;105763;1283;72619;-76
2022/12/14 11:08:08;;;;;;;63.50;41.30;;;;;;;-4.60;100.00;98229.30;105392;1298;60650;-76
2022/12/14 11:10:38;;;;;;;66.60;41.20;;;;;;;-4.56;100.00;98228.53;105374;1297;60441;-76
2022/12/14 11:13:16;;;;;;;64.80;40.80;;;;;;;-4.51;100.00;98218.38;105398;1304;74066;-76
2022/12/14 11:15:44;;;;;;;66.00;41.30;;;;;;;-4.49;100.00;98210.89;105427;1303;67894;-76
2022/12/14 11:18:16;;;;;;;66.20;41.70;;;;;;;-4.48;100.00;98206.70;105392;1303;72846;-77
2022/12/14 11:20:53;;;;;;;70.20;43.30;;;;;;;-4.50;100.00;98208.84;105402;1297;59840;-76
2022/12/14 11:23:27;;;;;;;67.90;43.80;;;;;;;-4.45;100.00;98201.63;105417;1298;60056;-77
2022/12/14 11:25:57;;;;;;;73.50;43.70;;;;;;;-4.44;100.00;98195.35;105260;1300;76617;-76
2022/12/14 11:28:26;;;;;;;;;;;;;;;-4.36;100.00;98196.77;105453;1297;68901;-76
2022/12/14 11:31:02;;;;;;;76.70;47.40;;;;;;;-4.34;100.00;98192.04;105405;1296;71407;-76